Time;durP1;ratioP1;P1;durP2;ratioP2;P2;SDS_P1;SDS_P2;PMS_P1;PMS_P2;Temp;Humidity;BMP_temperature;BMP_pressure;BME280_temperature;BME280_humidity;BME280_pressure;Samples;Min_cycle;Max_cycle;Signal;HPM_P1;HPM_P2
2023/03/21 00:01:22;;;;;;;8.15;6.72;;;10.60;99.90;;;;;;5056526;28;20025;-75
2023/03/21 00:03:48;;;;;;;7.65;6.40;;;10.60;99.90;;;;;;5057526;28;20032;-74
2023/03/21 00:06:14;;;;;;;9.27;6.45;;;10.60;99.90;;;;;;5057269;28;20039;-74
2023/03/21 00:08:40;;;;;;;9.10;6.40;;;10.70;99.90;;;;;;5058273;28;20021;-74
2023/03/21 00:11:08;;;;;;;7.78;6.15;;;10.70;99.90;;;;;;5057960;28;20025;-76
2023/03/21 00:13:37;;;;;;;9.03;6.80;;;10.70;99.90;;;;;;5058140;28;20027;-74
2023/03/21 00:16:25;;;;;;;10.05;6.10;;;10.70;99.90;;;;;;5057838;28;20025;-74
2023/03/21 00:18:52;;;;;;;7.38;6.28;;;10.70;99.90;;;;;;5056028;28;20028;-73
2023/03/21 00:21:20;;;;;;;8.25;6.15;;;10.70;99.90;;;;;;5057556;28;20491;-74
2023/03/21 00:23:46;;;;;;;9.70;7.03;;;10.70;99.90;;;;;;5056058;28;20470;-74
2023/03/21 00:26:13;;;;;;;8.38;6.13;;;10.60;99.90;;;;;;5055695;28;20055;-74
2023/03/21 00:28:41;;;;;;;9.02;6.72;;;10.60;99.90;;;;;;5055625;28;20025;-74
2023/03/21 00:31:07;;;;;;;9.10;6.00;;;10.60;99.90;;;;;;5056423;28;20025;-74
2023/03/21 00:33:34;;;;;;;10.50;6.68;;;10.60;99.90;;;;;;5057021;28;20055;-75
2023/03/21 00:36:00;;;;;;;8.93;6.10;;;10.50;99.90;;;;;;5054857;28;20053;-74
2023/03/21 00:38:26;;;;;;;8.10;6.30;;;10.50;99.90;;;;;;5054849;28;20522;-74
2023/03/21 00:40:52;;;;;;;8.10;5.78;;;10.50;99.90;;;;;;5055458;28;20033;-74
2023/03/21 00:43:22;;;;;;;7.97;6.15;;;10.50;99.90;;;;;;5056896;28;20036;-74
2023/03/21 00:45:49;;;;;;;7.60;5.55;;;10.50;99.90;;;;;;5056316;28;20029;-74
2023/03/21 00:48:16;;;;;;;7.07;5.78;;;10.50;99.90;;;;;;5055290;28;20033;-75
2023/03/21 00:50:44;;;;;;;6.47;5.03;;;10.50;99.90;;;;;;5056451;28;20477;-74
2023/03/21 00:53:10;;;;;;;5.20;4.70;;;10.60;99.90;;;;;;5056457;28;20033;-74
2023/03/21 00:55:37;;;;;;;6.55;4.40;;;10.70;99.90;;;;;;5054962;28;20029;-74
2023/03/21 00:58:03;;;;;;;11.25;4.47;;;10.70;99.90;;;;;;5055062;28;20104;-74
2023/03/21 01:00:29;;;;;;;6.65;4.55;;;10.70;99.90;;;;;;5055047;28;20051;-74
2023/03/21 01:02:56;;;;;;;5.88;3.80;;;10.70;99.90;;;;;;5056007;28;20388;-74
2023/03/21 01:06:03;;;;;;;5.20;4.10;;;10.70;99.90;;;;;;5054431;28;20484;-73
2023/03/21 01:08:15;;;;;;;3.45;3.13;;;10.70;99.90;;;;;;5055916;28;20039;-74
2023/03/21 01:10:42;;;;;;;3.35;2.95;;;10.70;99.90;;;;;;5055071;28;20025;-74
2023/03/21 01:13:09;;;;;;;3.67;2.67;;;10.70;99.90;;;;;;5054487;28;20103;-74
2023/03/21 01:15:41;;;;;;;4.15;3.60;;;10.80;99.90;;;;;;5053735;28;20033;-74
2023/03/21 01:18:06;;;;;;;4.18;2.83;;;10.80;99.90;;;;;;5054017;28;20522;-73
2023/03/21 01:20:32;;;;;;;6.18;2.60;;;10.80;99.90;;;;;;5054961;28;20032;-74
2023/03/21 01:22:58;;;;;;;6.53;2.40;;;10.70;99.90;;;;;;5055299;28;20032;-74
2023/03/21 01:25:24;;;;;;;4.32;2.78;;;10.80;99.90;;;;;;5055281;28;20043;-74
2023/03/21 01:27:50;;;;;;;3.83;2.60;;;10.80;99.90;;;;;;5053801;28;20457;-74
2023/03/21 01:30:16;;;;;;;4.18;2.50;;;10.80;99.90;;;;;;5055607;28;20104;-74
2023/03/21 01:32:41;;;;;;;3.47;2.55;;;10.80;99.90;;;;;;5053709;28;20068;-74
2023/03/21 01:35:08;;;;;;;2.33;2.13;;;10.80;99.90;;;;;;5054107;28;20030;-74
2023/03/21 01:37:34;;;;;;;4.25;2.05;;;10.80;99.90;;;;;;5055498;28;20037;-74
2023/03/21 01:39:59;;;;;;;2.75;2.38;;;10.80;99.90;;;;;;5055271;28;20027;-74
2023/03/21 01:42:25;;;;;;;2.80;2.25;;;10.80;99.90;;;;;;5054396;28;20025;-74
2023/03/21 01:44:57;;;;;;;3.38;2.45;;;10.80;99.90;;;;;;5058831;28;20025;-74
2023/03/21 01:47:24;;;;;;;2.13;1.92;;;10.90;99.90;;;;;;5059573;28;20029;-74
2023/03/21 01:49:55;;;;;;;7.50;2.20;;;10.90;99.90;;;;;;5057907;28;20086;-73
2023/03/21 01:52:31;;;;;;;3.33;2.30;;;10.90;99.90;;;;;;5057639;28;20464;-74
2023/03/21 01:54:58;;;;;;;2.53;2.08;;;10.90;99.90;;;;;;5059243;28;20024;-74
2023/03/21 01:57:32;;;;;;;2.75;2.53;;;10.80;99.90;;;;;;5059455;28;20140;-74
2023/03/21 02:00:11;;;;;;;3.00;2.28;;;10.80;99.90;;;;;;5057514;28;20028;-74
2023/03/21 02:02:50;;;;;;;3.58;2.53;;;10.80;99.90;;;;;;5057859;28;20036;-74
2023/03/21 02:05:25;;;;;;;2.72;2.53;;;10.80;99.90;;;;;;5058233;28;20029;-74
2023/03/21 02:07:51;;;;;;;4.32;2.60;;;10.80;99.90;;;;;;5058094;28;20057;-74
2023/03/21 02:10:17;;;;;;;3.50;2.88;;;10.80;99.90;;;;;;5057257;28;20121;-74
2023/03/21 02:12:43;;;;;;;3.50;2.97;;;10.80;99.90;;;;;;5057379;28;20045;-74
2023/03/21 02:15:10;;;;;;;2.88;2.65;;;10.80;99.90;;;;;;5057364;28;20055;-74
2023/03/21 02:17:39;;;;;;;4.68;2.58;;;10.80;99.90;;;;;;5057041;28;20079;-74
2023/03/21 02:20:24;;;;;;;2.85;2.58;;;10.80;99.90;;;;;;5057217;28;20025;-74
2023/03/21 02:23:07;;;;;;;5.22;2.88;;;10.80;99.90;;;;;;5058710;28;20021;-74
2023/03/21 02:25:52;;;;;;;4.93;2.72;;;10.80;99.90;;;;;;5056690;28;20028;-73
2023/03/21 02:28:52;;;;;;;3.28;2.70;;;10.80;99.90;;;;;;5057800;28;20025;-74
2023/03/21 02:31:36;;;;;;;2.65;2.45;;;10.80;99.90;;;;;;5056281;28;20079;-74
2023/03/21 02:34:19;;;;;;;2.78;2.55;;;10.80;99.90;;;;;;5058139;28;20063;-73
2023/03/21 02:37:15;;;;;;;4.82;3.22;;;10.80;99.90;;;;;;5055951;28;20045;-74
2023/03/21 02:40:09;;;;;;;3.50;3.20;;;10.80;99.90;;;;;;5056591;28;20024;-74
2023/03/21 02:42:54;;;;;;;5.22;2.83;;;10.70;99.90;;;;;;5057398;28;20021;-74
2023/03/21 02:45:24;;;;;;;4.22;2.85;;;10.70;99.90;;;;;;5056163;28;20043;-74
2023/03/21 02:47:56;;;;;;;7.10;3.20;;;10.60;99.90;;;;;;5057410;28;20021;-74
2023/03/21 02:50:32;;;;;;;6.38;3.80;;;10.50;99.90;;;;;;5057754;28;20027;-74
2023/03/21 02:52:59;;;;;;;3.85;3.45;;;10.50;99.90;;;;;;5058133;28;20119;-74
2023/03/21 02:55:27;;;;;;;4.45;3.50;;;10.40;99.90;;;;;;5056929;28;20435;-74
2023/03/21 02:57:55;;;;;;;5.45;3.80;;;10.40;99.90;;;;;;5056179;28;20025;-74
2023/03/21 03:00:31;;;;;;;5.00;3.72;;;10.30;99.90;;;;;;5055744;28;20064;-74
2023/03/21 03:02:57;;;;;;;5.78;4.10;;;10.30;99.90;;;;;;5057219;28;20021;-74
2023/03/21 03:05:26;;;;;;;4.60;3.83;;;10.20;99.90;;;;;;5056718;28;20033;-74
2023/03/21 03:07:57;;;;;;;;;;;10.20;99.90;;;;;;5055800;28;20033;-74
2023/03/21 03:10:36;;;;;;;6.20;3.97;;;10.10;99.90;;;;;;5056157;28;20275;-74
2023/03/21 03:13:29;;;;;;;6.32;4.15;;;10.10;99.90;;;;;;5056285;28;20079;-74
2023/03/21 03:16:10;;;;;;;6.72;4.32;;;10.00;99.90;;;;;;5056017;28;20120;-74
2023/03/21 03:18:59;;;;;;;8.10;4.45;;;9.90;99.90;;;;;;5057159;28;20033;-74
2023/03/21 03:21:30;;;;;;;4.63;3.92;;;9.90;99.90;;;;;;5056154;28;20115;-74
2023/03/21 03:24:28;;;;;;;5.93;4.97;;;9.80;99.90;;;;;;5057650;28;20025;-74
2023/03/21 03:27:12;;;;;;;5.43;4.65;;;9.70;99.90;;;;;;5053789;28;20087;-74
2023/03/21 03:29:41;;;;;;;5.30;4.20;;;9.70;99.90;;;;;;5056900;28;20025;-74
2023/03/21 03:32:34;;;;;;;5.65;4.35;;;9.70;99.90;;;;;;5057254;28;20033;-74
2023/03/21 03:35:01;;;;;;;4.88;4.30;;;9.70;99.90;;;;;;5055908;28;20035;-75
2023/03/21 03:37:31;;;;;;;7.82;4.97;;;9.60;99.90;;;;;;5057081;28;20064;-74
2023/03/21 03:40:40;;;;;;;4.97;4.47;;;9.60;99.90;;;;;;5055635;28;20053;-74
2023/03/21 03:43:20;;;;;;;9.23;4.53;;;9.60;99.90;;;;;;5034396;28;20033;-74
2023/03/21 03:45:49;;;;;;;5.18;4.57;;;9.60;99.90;;;;;;5034438;28;20125;-74
2023/03/21 03:48:27;;;;;;;5.38;4.85;;;9.50;99.90;;;;;;5017985;28;20030;-74
2023/03/21 03:51:12;;;;;;;8.35;5.35;;;9.40;99.90;;;;;;5034629;28;20033;-74
2023/03/21 03:53:44;;;;;;;5.90;5.07;;;9.40;99.90;;;;;;5034905;28;20038;-74
2023/03/21 03:56:12;;;;;;;6.63;5.18;;;9.30;99.90;;;;;;5017911;28;20029;-74
2023/03/21 03:58:39;;;;;;;6.35;4.82;;;9.20;99.90;;;;;;5034613;28;20100;-74
2023/03/21 04:01:08;;;;;;;5.38;4.47;;;9.10;99.90;;;;;;5018553;28;20045;-74
2023/03/21 04:03:37;;;;;;;5.10;4.50;;;9.10;99.90;;;;;;5017613;28;20116;-74
2023/03/21 04:06:03;;;;;;;6.35;4.28;;;9.00;99.90;;;;;;5033743;28;20048;-74
2023/03/21 04:08:29;;;;;;;5.95;4.43;;;8.90;99.90;;;;;;5034038;28;20037;-74
2023/03/21 04:10:55;;;;;;;8.23;4.63;;;8.80;99.90;;;;;;5034489;28;20029;-73
2023/03/21 04:13:21;;;;;;;6.22;4.78;;;8.70;99.90;;;;;;5028303;28;20139;-74
2023/03/21 04:15:47;;;;;;;6.20;4.65;;;8.60;99.90;;;;;;5056838;28;20036;-74
2023/03/21 04:18:12;;;;;;;5.50;3.90;;;8.40;99.90;;;;;;5056600;28;20025;-74
2023/03/21 04:20:38;;;;;;;7.70;4.20;;;8.40;99.90;;;;;;5056275;28;20025;-74
2023/03/21 04:23:05;;;;;;;5.78;4.57;;;8.30;99.90;;;;;;5056224;28;20028;-74
2023/03/21 04:25:33;;;;;;;6.35;4.32;;;8.20;99.90;;;;;;5057849;28;20032;-74
2023/03/21 04:27:59;;;;;;;7.60;4.05;;;8.20;99.90;;;;;;5057661;28;20025;-75
2023/03/21 04:30:25;;;;;;;6.72;5.10;;;8.10;99.90;;;;;;5056743;28;20125;-74
2023/03/21 04:32:55;;;;;;;11.00;4.60;;;8.00;99.90;;;;;;5057248;28;20033;-74
2023/03/21 04:35:23;;;;;;;5.15;4.47;;;7.90;99.90;;;;;;5055824;28;20428;-74
2023/03/21 04:37:49;;;;;;;5.43;4.43;;;7.80;99.90;;;;;;5057626;28;20025;-74
2023/03/21 04:40:18;;;;;;;6.97;5.13;;;7.70;99.90;;;;;;5057119;28;20083;-74
2023/03/21 04:42:45;;;;;;;5.88;4.70;;;7.60;99.90;;;;;;5056139;28;20029;-74
2023/03/21 04:45:13;;;;;;;7.22;4.80;;;7.60;99.90;;;;;;5055815;28;20025;-74
2023/03/21 04:47:38;;;;;;;6.00;4.57;;;7.50;99.90;;;;;;5056037;28;20029;-74
2023/03/21 04:50:05;;;;;;;4.65;4.25;;;7.50;99.90;;;;;;5056818;28;20530;-74
2023/03/21 04:52:30;;;;;;;5.82;4.70;;;7.40;99.90;;;;;;5056993;28;20032;-74
2023/03/21 04:54:56;;;;;;;6.75;4.93;;;7.30;99.90;;;;;;5055512;28;20021;-74
2023/03/21 04:57:22;;;;;;;6.15;4.80;;;7.20;99.90;;;;;;5055665;28;20068;-74
2023/03/21 04:59:47;;;;;;;6.82;4.88;;;7.10;99.90;;;;;;5054779;28;20039;-74
2023/03/21 05:02:13;;;;;;;5.85;4.40;;;7.00;99.90;;;;;;5055040;28;20424;-74
2023/03/21 05:04:39;;;;;;;5.47;4.45;;;7.00;99.90;;;;;;5055647;28;20056;-74
2023/03/21 05:07:05;;;;;;;10.10;5.18;;;6.90;99.90;;;;;;5055811;28;20029;-75
2023/03/21 05:09:31;;;;;;;6.45;5.07;;;6.90;99.90;;;;;;5057300;28;20032;-75
2023/03/21 05:11:56;;;;;;;6.60;4.95;;;6.90;99.90;;;;;;5056863;28;20112;-75
2023/03/21 05:14:24;;;;;;;7.93;5.30;;;6.90;99.90;;;;;;5056874;28;20078;-70
2023/03/21 05:16:55;;;;;;;7.03;5.15;;;6.90;99.90;;;;;;5058120;28;20041;-73
2023/03/21 05:19:33;;;;;;;10.13;5.70;;;6.90;99.90;;;;;;5059985;28;20031;-74
2023/03/21 05:22:10;;;;;;;9.20;5.50;;;6.90;99.90;;;;;;5061455;28;20447;-73
2023/03/21 05:24:40;;;;;;;8.73;5.93;;;7.00;99.90;;;;;;5061003;28;20119;-73
2023/03/21 05:27:07;;;;;;;8.43;6.38;;;7.00;99.90;;;;;;5060611;28;20021;-74
2023/03/21 05:29:33;;;;;;;8.30;6.32;;;7.10;99.90;;;;;;5061714;28;20025;-73
2023/03/21 05:32:00;;;;;;;9.50;5.80;;;7.30;99.90;;;;;;5060532;28;20033;-73
2023/03/21 05:34:26;;;;;;;7.60;6.05;;;7.40;99.90;;;;;;5061407;28;20108;-74
2023/03/21 05:36:53;;;;;;;8.80;5.93;;;7.50;99.90;;;;;;5060819;28;20063;-74
2023/03/21 05:39:19;;;;;;;9.40;6.00;;;7.70;99.90;;;;;;5060105;28;20032;-70
2023/03/21 05:41:44;;;;;;;7.63;5.20;;;7.90;99.90;;;;;;5059225;28;20025;-71
2023/03/21 05:44:10;;;;;;;11.90;6.35;;;7.90;99.90;;;;;;5061303;28;20052;-71
2023/03/21 05:46:36;;;;;;;9.68;6.15;;;8.00;99.90;;;;;;5059553;28;20469;-73
2023/03/21 05:49:02;;;;;;;7.95;6.28;;;8.20;99.90;;;;;;5059242;28;20116;-73
2023/03/21 05:51:27;;;;;;;6.90;5.50;;;8.40;99.90;;;;;;5059337;28;20119;-73
2023/03/21 05:53:53;;;;;;;6.15;5.53;;;8.60;99.90;;;;;;5059040;28;20025;-73
2023/03/21 05:56:19;;;;;;;6.10;5.25;;;8.80;99.90;;;;;;5058471;28;20067;-73
2023/03/21 05:58:45;;;;;;;8.57;6.28;;;8.90;99.90;;;;;;5059362;28;20025;-72
2023/03/21 06:01:11;;;;;;;8.48;6.07;;;9.10;99.90;;;;;;5058114;28;20535;-73
2023/03/21 06:03:36;;;;;;;6.63;5.22;;;9.20;99.90;;;;;;5058026;28;20028;-73
2023/03/21 06:06:02;;;;;;;8.18;5.47;;;9.30;99.90;;;;;;5061081;28;20064;-74
2023/03/21 06:08:29;;;;;;;7.10;5.22;;;9.40;99.90;;;;;;5057538;28;20029;-74
2023/03/21 06:10:54;;;;;;;8.20;5.40;;;9.40;99.90;;;;;;5057865;28;20063;-74
2023/03/21 06:13:20;;;;;;;9.23;6.10;;;9.50;99.90;;;;;;5057056;28;20025;-73
2023/03/21 06:15:46;;;;;;;6.18;5.07;;;9.50;99.90;;;;;;5055711;28;20037;-73
2023/03/21 06:18:12;;;;;;;7.55;4.75;;;9.60;99.90;;;;;;5057523;28;20103;-73
2023/03/21 06:20:38;;;;;;;6.50;4.70;;;9.80;99.90;;;;;;5057664;28;20061;-73
2023/03/21 06:23:04;;;;;;;8.55;5.10;;;10.00;99.90;;;;;;5055963;28;20049;-72
2023/03/21 06:25:29;;;;;;;5.13;4.57;;;10.50;99.90;;;;;;5056265;28;20471;-71
2023/03/21 06:27:55;;;;;;;10.18;4.82;;;11.00;99.90;;;;;;5055963;28;20025;-71
2023/03/21 06:30:21;;;;;;;8.15;4.05;;;11.40;99.90;;;;;;5054157;28;20024;-73
2023/03/21 06:32:46;;;;;;;5.93;4.50;;;11.80;99.90;;;;;;5055275;28;20075;-67
2023/03/21 06:35:12;;;;;;;4.68;3.95;;;12.20;99.90;;;;;;5055310;28;20029;-73
2023/03/21 06:37:38;;;;;;;8.93;4.50;;;12.50;99.90;;;;;;5055667;28;20059;-72
2023/03/21 06:40:04;;;;;;;10.02;4.50;;;12.60;99.90;;;;;;5055554;28;20071;-72
2023/03/21 06:42:31;;;;;;;6.93;4.07;;;12.80;99.90;;;;;;5055483;28;20515;-76
2023/03/21 06:44:57;;;;;;;5.38;4.55;;;12.90;99.90;;;;;;5054230;28;20415;-73
2023/03/21 06:47:23;;;;;;;6.28;4.05;;;13.10;99.90;;;;;;5055539;28;20029;-75
2023/03/21 06:49:48;;;;;;;7.72;4.03;;;13.10;99.90;;;;;;5055533;28;20033;-74
2023/03/21 06:52:14;;;;;;;6.43;4.00;;;13.10;99.90;;;;;;5055270;28;20025;-71
2023/03/21 06:54:40;;;;;;;4.38;3.63;;;13.10;99.90;;;;;;5054430;28;20044;-73
2023/03/21 06:57:05;;;;;;;5.10;4.53;;;13.20;99.90;;;;;;5055315;28;20037;-74
2023/03/21 06:59:31;;;;;;;5.85;4.30;;;13.10;99.90;;;;;;5054995;28;20075;-73
2023/03/21 07:01:57;;;;;;;7.00;4.22;;;13.10;99.90;;;;;;5054070;28;20032;-74
2023/03/21 07:04:23;;;;;;;8.13;4.75;;;13.20;99.90;;;;;;5053934;28;20086;-73
2023/03/21 07:06:49;;;;;;;7.15;4.18;;;13.40;99.90;;;;;;5053899;28;20503;-74
2023/03/21 07:09:16;;;;;;;7.85;4.38;;;13.60;99.90;;;;;;5055165;28;20527;-73
2023/03/21 07:11:42;;;;;;;6.88;3.97;;;13.90;99.90;;;;;;5055202;28;20190;-73
2023/03/21 07:14:08;;;;;;;7.57;3.97;;;14.40;99.90;;;;;;5053919;28;20021;-74
2023/03/21 07:16:34;;;;;;;7.28;4.10;;;14.80;98.20;;;;;;5054807;28;20423;-74
2023/03/21 07:18:59;;;;;;;7.03;4.50;;;15.00;97.80;;;;;;5054779;28;20048;-74
2023/03/21 07:21:25;;;;;;;8.15;4.35;;;15.30;96.30;;;;;;5053571;28;20074;-73
2023/03/21 07:23:51;;;;;;;4.47;3.83;;;15.50;95.80;;;;;;5053618;28;20484;-74
2023/03/21 07:26:17;;;;;;;6.63;3.95;;;16.00;94.20;;;;;;5053102;28;20499;-73
2023/03/21 07:28:43;;;;;;;8.32;4.07;;;16.20;91.60;;;;;;5053668;28;20032;-73
2023/03/21 07:31:14;;;;;;;9.82;3.95;;;16.40;90.70;;;;;;5053388;28;20389;-73
2023/03/21 07:33:39;;;;;;;5.03;3.58;;;16.40;88.80;;;;;;5054601;28;20029;-74
2023/03/21 07:36:11;;;;;;;6.03;3.78;;;16.40;88.50;;;;;;5054743;28;20045;-74
2023/03/21 07:38:37;;;;;;;3.72;3.35;;;16.60;85.40;;;;;;5053447;28;20115;-74
2023/03/21 07:41:03;;;;;;;3.95;3.50;;;16.50;83.20;;;;;;5052506;28;20452;-74
2023/03/21 07:43:28;;;;;;;5.55;3.90;;;16.10;83.90;;;;;;5053853;28;20032;-74
2023/03/21 07:45:58;;;;;;;5.30;3.85;;;16.20;84.90;;;;;;5053120;28;20033;-73
2023/03/21 07:48:24;;;;;;;4.57;4.05;;;16.00;84.60;;;;;;5054338;28;20032;-73
2023/03/21 07:50:49;;;;;;;4.72;4.00;;;15.80;84.90;;;;;;5054067;28;20025;-73
2023/03/21 07:53:15;;;;;;;5.68;4.35;;;15.50;85.70;;;;;;5053025;28;20039;-73
2023/03/21 07:55:41;;;;;;;4.57;4.05;;;15.30;88.00;;;;;;5053167;28;20453;-73
2023/03/21 07:58:07;;;;;;;5.90;4.28;;;15.00;89.60;;;;;;5054507;28;20461;-73
2023/03/21 08:00:32;;;;;;;7.82;4.70;;;15.30;89.90;;;;;;5053339;28;20025;-73
2023/03/21 08:02:59;;;;;;;4.38;3.90;;;15.30;90.20;;;;;;5054184;28;20086;-73
2023/03/21 08:05:33;;;;;;;5.88;4.63;;;15.70;90.10;;;;;;5053216;28;20478;-73
2023/03/21 08:07:59;;;;;;;12.20;4.63;;;16.00;89.30;;;;;;5053750;28;20041;-73
2023/03/21 08:10:25;;;;;;;8.23;5.00;;;16.00;87.40;;;;;;5053898;28;20056;-73
2023/03/21 08:12:51;;;;;;;5.13;4.63;;;16.00;87.20;;;;;;5054160;28;20060;-73
2023/03/21 08:15:17;;;;;;;14.25;5.35;;;16.10;86.80;;;;;;5054050;28;20082;-73
2023/03/21 08:17:46;;;;;;;6.05;4.68;;;16.50;86.20;;;;;;5053851;28;20461;-73
2023/03/21 08:20:14;;;;;;;6.22;5.03;;;16.80;85.30;;;;;;5053977;28;20021;-73
2023/03/21 08:22:42;;;;;;;6.30;5.15;;;17.00;84.50;;;;;;5052795;28;20029;-73
2023/03/21 08:25:12;;;;;;;7.97;5.15;;;16.90;84.20;;;;;;5052452;28;20430;-74
2023/03/21 08:27:41;;;;;;;6.80;4.90;;;17.10;84.00;;;;;;5052844;28;20025;-73
2023/03/21 08:30:09;;;;;;;7.63;5.13;;;17.20;81.60;;;;;;5052712;28;20025;-73
2023/03/21 08:32:37;;;;;;;5.05;4.53;;;17.00;82.20;;;;;;5052474;28;20032;-73
2023/03/21 08:35:04;;;;;;;10.25;4.82;;;17.00;80.40;;;;;;5054048;28;20025;-73
2023/03/21 08:37:30;;;;;;;4.82;4.32;;;17.20;80.80;;;;;;5052411;28;20476;-73
2023/03/21 08:39:55;;;;;;;4.63;4.20;;;17.50;79.00;;;;;;5053647;28;20074;-73
2023/03/21 08:42:21;;;;;;;6.07;3.83;;;17.50;78.70;;;;;;5052372;28;20029;-73
2023/03/21 08:44:47;;;;;;;5.70;3.72;;;17.70;76.20;;;;;;5053553;28;20025;-74
2023/03/21 08:47:13;;;;;;;5.35;4.40;;;18.00;73.60;;;;;;5053266;28;20037;-73
2023/03/21 08:49:40;;;;;;;5.20;3.63;;;17.60;74.40;;;;;;5053450;28;20028;-72
2023/03/21 08:52:06;;;;;;;8.27;4.22;;;17.30;75.80;;;;;;5054553;28;20067;-73
2023/03/21 08:54:31;;;;;;;5.10;3.95;;;17.30;75.90;;;;;;5056360;28;20028;-73
2023/03/21 08:56:57;;;;;;;4.20;3.53;;;17.60;76.00;;;;;;5057246;28;20033;-73
2023/03/21 08:59:23;;;;;;;4.63;3.70;;;17.60;74.70;;;;;;5057577;28;20036;-72
2023/03/21 09:01:49;;;;;;;8.05;3.90;;;17.00;75.40;;;;;;5056471;28;20167;-73
2023/03/21 09:04:17;;;;;;;3.85;3.50;;;16.90;76.40;;;;;;5056439;28;20020;-73
2023/03/21 09:06:47;;;;;;;4.83;3.50;;;16.80;76.80;;;;;;5057120;28;20062;-73
2023/03/21 09:09:14;;;;;;;7.18;3.90;;;16.70;77.20;;;;;;5057410;28;20260;-67
2023/03/21 09:11:40;;;;;;;5.07;3.78;;;16.70;77.50;;;;;;5056084;28;20033;-73
2023/03/21 09:14:06;;;;;;;4.32;3.75;;;16.70;76.70;;;;;;5057090;28;20465;-71
2023/03/21 09:16:32;;;;;;;4.85;4.00;;;16.50;78.20;;;;;;5056112;28;20029;-69
2023/03/21 09:18:58;;;;;;;6.20;3.60;;;16.20;79.20;;;;;;5057404;28;20025;-70
2023/03/21 09:21:26;;;;;;;4.85;4.05;;;16.30;80.50;;;;;;5057396;28;20021;-70
2023/03/21 09:23:55;;;;;;;4.78;4.05;;;16.80;78.90;;;;;;5056418;28;20021;-70
2023/03/21 09:26:21;;;;;;;;;;;17.20;77.40;;;;;;5057472;28;20028;-70
2023/03/21 09:28:47;;;;;;;4.80;3.75;;;17.30;76.00;;;;;;5056779;28;19905;-70
2023/03/21 09:31:20;;;;;;;5.25;4.20;;;17.70;76.10;;;;;;5056998;28;20025;-71
2023/03/21 09:33:46;;;;;;;3.67;3.38;;;18.40;72.90;;;;;;5056936;28;20053;-70
2023/03/21 09:36:17;;;;;;;5.70;4.28;;;18.80;71.40;;;;;;5055463;28;20477;-70
2023/03/21 09:38:44;;;;;;;12.27;4.60;;;19.00;70.30;;;;;;5056681;28;20532;-71
2023/03/21 09:41:31;;;;;;;4.75;4.22;;;18.40;70.00;;;;;;5056777;28;20021;-70
2023/03/21 09:44:31;;;;;;;4.80;4.20;;;18.30;70.80;;;;;;5057026;28;20031;-70
2023/03/21 09:47:04;;;;;;;4.68;4.20;;;18.30;70.40;;;;;;5056806;28;20370;-70
2023/03/21 09:49:43;;;;;;;7.18;4.70;;;18.80;68.90;;;;;;5056514;28;20477;-70
2023/03/21 09:52:31;;;;;;;5.80;4.57;;;18.90;67.00;;;;;;5056645;28;20025;-69
2023/03/21 09:54:57;;;;;;;5.03;4.45;;;18.30;68.80;;;;;;5055525;28;20025;-70
2023/03/21 09:57:36;;;;;;;7.45;4.38;;;18.50;68.10;;;;;;5055144;28;20397;-70
2023/03/21 10:00:13;;;;;;;4.82;4.20;;;18.50;68.60;;;;;;5055232;28;20021;-70
2023/03/21 10:02:46;;;;;;;5.55;4.20;;;18.80;67.90;;;;;;5055376;28;20025;-71
2023/03/21 10:05:17;;;;;;;5.15;4.38;;;19.60;64.90;;;;;;5054363;28;20515;-71
2023/03/21 10:08:03;;;;;;;5.38;4.68;;;20.10;61.70;;;;;;5055988;28;20396;-71
2023/03/21 10:10:35;;;;;;;7.45;4.50;;;20.50;60.60;;;;;;5056014;28;20487;-71
2023/03/21 10:13:03;;;;;;;4.75;4.10;;;19.90;60.90;;;;;;5055566;28;20439;-71
2023/03/21 10:15:29;;;;;;;4.60;4.00;;;19.20;62.20;;;;;;5056180;28;20047;-70
2023/03/21 10:18:05;;;;;;;4.03;3.72;;;18.20;64.30;;;;;;5056237;28;20029;-70
2023/03/21 10:20:36;;;;;;;4.40;3.83;;;17.30;65.80;;;;;;5054855;28;20029;-70
2023/03/21 10:23:07;;;;;;;7.25;4.30;;;16.80;68.00;;;;;;5056096;28;20021;-70
2023/03/21 10:25:38;;;;;;;4.88;4.03;;;16.50;70.30;;;;;;5055920;28;20033;-70
2023/03/21 10:28:07;;;;;;;4.20;3.78;;;16.40;71.70;;;;;;5055713;28;20025;-70
2023/03/21 10:30:51;;;;;;;5.13;4.32;;;16.50;69.10;;;;;;5055963;28;20036;-70
2023/03/21 10:33:26;;;;;;;4.97;4.45;;;16.40;70.40;;;;;;5054611;28;20029;-70
2023/03/21 10:35:59;;;;;;;6.75;4.68;;;16.30;72.20;;;;;;5055266;28;20049;-70
2023/03/21 10:38:25;;;;;;;4.95;4.45;;;16.20;72.70;;;;;;5056020;28;20056;-70
2023/03/21 10:40:52;;;;;;;5.65;4.22;;;16.00;72.70;;;;;;5055620;28;20484;-70
2023/03/21 10:43:39;;;;;;;5.57;4.20;;;15.80;72.60;;;;;;5054508;28;20032;-70
2023/03/21 10:46:12;;;;;;;7.30;4.70;;;15.60;74.00;;;;;;5054257;28;20075;-69
2023/03/21 10:48:40;;;;;;;8.98;4.70;;;15.50;75.00;;;;;;5055513;28;20469;-69
2023/03/21 10:51:08;;;;;;;5.63;4.72;;;15.70;75.30;;;;;;5055525;28;20032;-69
2023/03/21 10:53:48;;;;;;;9.30;4.65;;;15.80;75.20;;;;;;5055516;28;20028;-70
2023/03/21 10:56:14;;;;;;;6.82;4.72;;;15.90;75.60;;;;;;5053704;28;20048;-69
2023/03/21 10:58:48;;;;;;;5.80;4.63;;;16.00;76.10;;;;;;5053977;28;20052;-70
2023/03/21 11:01:29;;;;;;;6.30;4.70;;;16.10;75.50;;;;;;5055189;28;20392;-70
2023/03/21 11:04:05;;;;;;;6.20;4.78;;;16.20;75.60;;;;;;5055088;28;20117;-70
2023/03/21 11:06:36;;;;;;;6.93;4.68;;;17.10;73.80;;;;;;5055282;28;20032;-70
2023/03/21 11:09:20;;;;;;;8.18;5.00;;;18.00;70.40;;;;;;5055137;28;20457;-70
2023/03/21 11:12:10;;;;;;;4.35;3.95;;;18.80;67.40;;;;;;5054355;28;20029;-70
2023/03/21 11:14:45;;;;;;;5.60;4.30;;;19.00;66.70;;;;;;5055041;28;20029;-70
2023/03/21 11:17:16;;;;;;;5.15;4.15;;;18.80;66.00;;;;;;5052583;28;20485;-70
2023/03/21 11:19:53;;;;;;;3.90;3.50;;;19.70;63.70;;;;;;5053708;28;20049;-70
2023/03/21 11:22:25;;;;;;;4.35;3.38;;;20.50;60.00;;;;;;5053639;28;20441;-71
2023/03/21 11:24:55;;;;;;;4.68;3.22;;;20.50;59.00;;;;;;5054575;28;20036;-71
2023/03/21 11:27:21;;;;;;;3.42;3.13;;;21.30;57.00;;;;;;5054992;28;20087;-71
2023/03/21 11:29:51;;;;;;;3.05;2.75;;;21.10;55.60;;;;;;5054826;28;20029;-71
2023/03/21 11:32:30;;;;;;;6.57;2.97;;;21.20;55.10;;;;;;5054394;28;20465;-71
2023/03/21 11:35:14;;;;;;;3.42;2.80;;;22.70;52.50;;;;;;5054663;28;20029;-71
2023/03/21 11:37:46;;;;;;;4.53;2.70;;;23.80;49.50;;;;;;5054699;28;20037;-74
2023/03/21 11:40:24;;;;;;;7.00;3.13;;;23.40;48.40;;;;;;5053201;28;20028;-71
2023/03/21 11:42:58;;;;;;;5.35;2.95;;;22.60;48.80;;;;;;5053312;28;20071;-71
2023/03/21 11:45:34;;;;;;;3.28;2.72;;;21.80;49.50;;;;;;5054487;28;20115;-71
2023/03/21 11:48:20;;;;;;;4.20;2.60;;;20.70;51.50;;;;;;5053374;28;20032;-71
2023/03/21 11:50:51;;;;;;;5.13;3.00;;;21.20;51.20;;;;;;5052377;28;20035;-71
2023/03/21 11:53:31;;;;;;;2.50;2.22;;;21.40;50.20;;;;;;5054524;28;20025;-71
2023/03/21 11:56:18;;;;;;;3.10;2.20;;;21.30;49.30;;;;;;5052918;28;20037;-71
2023/03/21 11:58:56;;;;;;;2.60;2.40;;;20.40;51.00;;;;;;5052583;28;20083;-71
2023/03/21 12:01:37;;;;;;;2.67;2.47;;;21.60;50.70;;;;;;5054163;28;20408;-71
2023/03/21 12:04:03;;;;;;;4.93;2.42;;;23.20;47.70;;;;;;5054447;28;20028;-72
2023/03/21 12:06:36;;;;;;;4.80;2.33;;;23.20;45.40;;;;;;5054374;28;20086;-71
2023/03/21 12:09:25;;;;;;;2.20;2.00;;;22.70;47.20;;;;;;5054103;28;20032;-71
2023/03/21 12:12:05;;;;;;;2.13;1.92;;;23.70;46.80;;;;;;5054232;28;20070;-71
2023/03/21 12:14:30;;;;;;;2.50;2.30;;;23.90;43.60;;;;;;5054086;28;20108;-71
2023/03/21 12:17:02;;;;;;;2.42;2.22;;;22.50;45.10;;;;;;5053775;28;20524;-71
2023/03/21 12:20:10;;;;;;;6.68;2.15;;;22.30;46.90;;;;;;5052317;28;20112;-71
2023/03/21 12:22:42;;;;;;;;;;;22.40;46.50;;;;;;5053681;28;20052;-70
2023/03/21 12:25:30;;;;;;;5.93;2.65;;;21.90;47.30;;;;;;5053569;28;19905;-69
2023/03/21 12:28:13;;;;;;;3.70;2.42;;;21.50;47.90;;;;;;5052185;28;20036;-70
2023/03/21 12:31:04;;;;;;;5.38;2.20;;;20.70;49.10;;;;;;5052395;28;20036;-70
2023/03/21 12:33:53;;;;;;;2.35;2.10;;;20.10;50.20;;;;;;5053036;28;20025;-70
2023/03/21 12:36:21;;;;;;;;;;;20.40;50.80;;;;;;5042454;28;20485;-69
2023/03/21 12:38:48;;;;;;;2.35;2.15;;;20.50;49.40;;;;;;5053615;28;19928;-74
2023/03/21 12:41:26;;;;;;;2.85;2.40;;;20.10;50.80;;;;;;5053677;28;20021;-74
2023/03/21 12:44:03;;;;;;;3.00;2.35;;;20.50;50.50;;;;;;5051964;28;20025;-74
2023/03/21 12:46:46;;;;;;;4.30;2.42;;;21.00;49.80;;;;;;5053068;28;20040;-74
2023/03/21 12:49:17;;;;;;;2.22;2.00;;;21.70;48.90;;;;;;5052456;28;20033;-74
2023/03/21 12:51:48;;;;;;;2.78;2.30;;;22.80;46.50;;;;;;5052594;28;20376;-73
2023/03/21 12:54:20;;;;;;;2.63;2.42;;;23.10;45.20;;;;;;5052363;28;20036;-73
2023/03/21 12:57:03;;;;;;;4.68;2.25;;;22.20;45.70;;;;;;5053213;28;20025;-63
2023/03/21 12:59:36;;;;;;;3.40;1.80;;;21.30;47.70;;;;;;5053485;28;20036;-63
2023/03/21 13:02:21;;;;;;;2.47;1.67;;;21.60;47.70;;;;;;5053842;28;20421;-63
2023/03/21 13:04:56;;;;;;;4.03;1.50;;;21.40;47.50;;;;;;5053371;28;20025;-63
2023/03/21 13:07:24;;;;;;;2.80;1.23;;;21.00;48.10;;;;;;5053317;28;20021;-62
2023/03/21 13:09:50;;;;;;;2.72;1.40;;;21.10;49.40;;;;;;5052397;28;20116;-73